Time;durP1;ratioP1;P1;durP2;ratioP2;P2;SDS_P1;SDS_P2;PMS_P1;PMS_P2;Temp;Humidity;BMP_temperature;BMP_pressure;BME280_temperature;BME280_humidity;BME280_pressure;Samples;Min_cycle;Max_cycle;Signal;HPM_P1;HPM_P2
2023/10/28 00:04:31;;;;;;;7.30;4.60;;;;;;;9.71;100.00;97215.45;270882;1270;25403;-84
2023/10/28 00:10:35;;;;;;;5.80;4.30;;;;;;;9.72;100.00;97226.11;271286;1268;22515;-84
2023/10/28 00:16:37;;;;;;;7.40;4.10;;;;;;;9.75;100.00;97232.48;269724;1269;22532;-84
2023/10/28 00:22:39;;;;;;;10.00;5.00;;;;;;;9.76;100.00;97236.61;270310;1269;22552;-84
2023/10/28 00:28:40;;;;;;;5.80;4.10;;;;;;;9.77;100.00;97242.77;268735;1269;22538;-83
2023/10/28 00:34:43;;;;;;;7.00;4.60;;;;;;;9.76;100.00;97242.06;269471;1269;22774;-84
2023/10/28 00:40:45;;;;;;;4.70;3.90;;;;;;;9.74;100.00;97240.38;270011;1268;22525;-84
2023/10/28 00:46:47;;;;;;;5.90;4.80;;;;;;;9.74;100.00;97237.41;269875;1269;23256;-83
2023/10/28 00:52:58;;;;;;;8.20;4.50;;;;;;;9.72;100.00;97246.80;268917;1269;22534;-82
2023/10/28 00:59:00;;;;;;;5.30;3.90;;;;;;;9.67;100.00;97256.55;269210;1267;23444;-83
2023/10/28 01:05:03;;;;;;;4.70;3.20;;;;;;;9.66;100.00;97266.89;272045;1269;23084;-84
2023/10/28 01:11:05;;;;;;;5.70;2.80;;;;;;;9.66;100.00;97269.77;272933;1269;22628;-84
2023/10/28 01:17:16;;;;;;;5.60;2.60;;;;;;;9.66;100.00;97278.04;271327;1268;22354;-84
2023/10/28 01:23:18;;;;;;;3.10;2.70;;;;;;;9.67;100.00;97282.55;273411;1269;22324;-83
2023/10/28 01:29:20;;;;;;;5.00;2.60;;;;;;;9.68;100.00;97290.34;272445;1269;22548;-84
2023/10/28 01:35:22;;;;;;;3.20;2.40;;;;;;;9.69;100.00;97295.88;273194;1269;22683;-83
2023/10/28 01:41:23;;;;;;;5.80;2.40;;;;;;;9.70;100.00;97306.64;273905;1270;22200;-84
2023/10/28 01:47:26;;;;;;;4.20;2.80;;;;;;;9.69;100.00;97312.18;273846;1270;22314;-83
2023/10/28 01:53:30;;;;;;;5.20;2.30;;;;;;;9.68;100.00;97321.97;273605;1270;22578;-83
2023/10/28 01:59:37;;;;;;;6.50;2.40;;;;;;;9.67;100.00;97328.30;271341;1269;22808;-84
2023/10/28 02:05:42;;;;;;;3.50;2.10;;;;;;;9.67;100.00;97344.84;273356;1277;22249;-83
2023/10/28 02:12:01;;;;;;;3.80;1.80;;;;;;;9.69;100.00;97348.64;273414;1269;22330;-83
2023/10/28 02:18:19;;;;;;;4.10;2.20;;;;;;;9.70;100.00;97351.05;273493;1269;22188;-83
2023/10/28 02:24:21;;;;;;;4.90;2.20;;;;;;;9.71;100.00;97355.25;273427;1269;22530;-82
2023/10/28 02:37:23;;;;;;;3.00;2.40;;;;;;;9.73;100.00;97375.05;272043;1269;102336;-85
2023/10/28 02:43:25;;;;;;;9.50;3.10;;;;;;;9.74;100.00;97371.21;272976;1272;22416;-86
2023/10/28 02:49:28;;;;;;;4.30;2.70;;;;;;;9.72;100.00;97367.81;272711;1272;23185;-86
2023/10/28 02:55:55;;;;;;;3.60;2.40;;;;;;;9.71;100.00;97373.83;273120;1272;22225;-86
2023/10/28 03:01:57;;;;;;;7.10;2.60;;;;;;;9.73;100.00;97376.70;271216;1266;22560;-86
2023/10/28 03:08:19;;;;;;;3.90;2.20;;;;;;;9.73;100.00;97384.27;271873;1272;22575;-83
2023/10/28 03:14:56;;;;;;;5.20;2.80;;;;;;;9.75;100.00;97380.50;271486;1272;22206;-85
2023/10/28 03:20:59;;;;;;;4.00;2.30;;;;;;;9.72;100.00;97374.92;272822;1272;22589;-85
2023/10/28 03:27:01;;;;;;;3.90;2.30;;;;;;;9.64;100.00;97375.80;272715;1272;22998;-85
2023/10/28 03:33:07;;;;;;;3.10;2.30;;;;;;;9.63;100.00;97381.98;272794;1272;23035;-86
2023/10/28 03:39:51;;;;;;;5.00;2.70;;;;;;;9.62;100.00;97382.83;272471;1272;22214;-86
2023/10/28 03:45:53;;;;;;;4.70;2.70;;;;;;;9.62;100.00;97386.73;273008;1264;22241;-86
2023/10/28 03:51:56;;;;;;;4.80;2.80;;;;;;;9.66;100.00;97394.58;272217;1268;23089;-85
2023/10/28 03:58:25;;;;;;;3.00;2.10;;;;;;;9.69;100.00;97395.80;271190;1272;24202;-85
2023/10/28 04:04:28;;;;;;;2.40;1.90;;;;;;;9.65;100.00;97394.98;272309;1272;22567;-85
2023/10/28 04:10:37;;;;;;;2.30;1.80;;;;;;;9.58;100.00;97395.77;271544;1272;22641;-84
2023/10/28 04:17:24;;;;;;;2.90;1.70;;;;;;;9.48;100.00;97391.48;272758;1266;22475;-85
2023/10/28 04:24:09;;;;;;;5.60;2.10;;;;;;;9.37;100.00;97391.90;272013;1272;23266;-85
2023/10/28 04:30:13;;;;;;;3.60;2.00;;;;;;;9.22;100.00;97396.73;272020;1265;22332;-84
2023/10/28 04:36:26;;;;;;;6.80;1.70;;;;;;;9.10;100.00;97401.27;272775;1271;22396;-85
2023/10/28 04:43:09;;;;;;;4.00;1.70;;;;;;;8.99;100.00;97408.94;272897;1269;22251;-85
2023/10/28 04:49:24;;;;;;;6.10;1.70;;;;;;;8.89;100.00;97419.70;272888;1266;22527;-86
2023/10/28 04:56:08;;;;;;;2.40;1.80;;;;;;;8.80;100.00;97422.48;270500;1268;23933;-85
2023/10/28 05:02:11;;;;;;;4.80;1.90;;;;;;;8.71;100.00;97434.16;270993;1272;22625;-86
2023/10/28 05:08:37;;;;;;;5.30;1.80;;;;;;;8.62;100.00;97440.61;271094;1270;22200;-85
2023/10/28 05:15:22;;;;;;;2.00;1.80;;;;;;;8.49;100.00;97446.77;272974;1272;22871;-87
2023/10/28 05:21:54;;;;;;;2.10;1.60;;;;;;;8.43;100.00;97456.23;272644;1272;22182;-86
2023/10/28 05:28:35;;;;;;;2.60;1.60;;;;;;;8.42;100.00;97460.36;272947;1275;22291;-85
2023/10/28 05:35:00;;;;;;;1.80;1.60;;;;;;;8.37;100.00;97462.17;273035;1272;23276;-85
2023/10/28 05:41:42;;;;;;;3.30;1.80;;;;;;;8.28;100.00;97475.30;272802;1272;22266;-86
2023/10/28 05:47:47;;;;;;;2.70;1.80;;;;;;;8.12;100.00;97483.35;271540;1272;23636;-85
2023/10/28 05:53:50;;;;;;;5.60;3.20;;;;;;;8.01;100.00;97489.23;271026;1272;22632;-86
2023/10/28 05:59:55;;;;;;;5.10;2.90;;;;;;;7.94;100.00;97490.27;271362;1272;277113;-85
2023/10/28 06:06:11;;;;;;;3.30;3.00;;;;;;;7.96;100.00;97496.95;273715;1272;22202;-87
2023/10/28 06:12:46;;;;;;;5.20;3.00;;;;;;;8.09;100.00;97502.36;272982;1272;22420;-85
2023/10/28 06:18:48;;;;;;;5.80;2.50;;;;;;;8.27;100.00;97519.85;272940;1272;22493;-85
2023/10/28 06:24:49;;;;;;;7.90;2.60;;;;;;;8.36;100.00;97533.07;272423;1272;22470;-86
2023/10/28 06:31:14;;;;;;;4.80;2.80;;;;;;;8.43;100.00;97544.41;272759;1272;22206;-86
2023/10/28 06:37:15;;;;;;;4.40;2.40;;;;;;;8.62;100.00;97553.38;272584;1272;22648;-86
2023/10/28 06:43:22;;;;;;;2.80;2.20;;;;;;;8.84;100.00;97550.48;272815;1266;22566;-86
2023/10/28 06:49:45;;;;;;;2.20;1.70;;;;;;;9.09;100.00;97561.09;270483;1266;22196;-85
2023/10/28 06:55:50;;;;;;;2.20;1.50;;;;;;;9.36;100.00;97579.72;272563;1272;23241;-85
2023/10/28 07:01:53;;;;;;;3.40;1.90;;;;;;;9.76;100.00;97585.74;271932;1272;22548;-86
2023/10/28 07:07:57;;;;;;;3.90;2.20;;;;;;;10.29;100.00;97585.27;272737;1265;22570;-85
2023/10/28 07:13:59;;;;;;;4.60;1.70;;;;;;;10.94;100.00;97598.52;270999;1272;22543;-84
2023/10/28 07:20:01;;;;;;;2.20;1.40;;;;;;;11.62;100.00;97614.28;270677;1272;23336;-85
2023/10/28 07:26:03;;;;;;;5.60;2.00;;;;;;;12.12;100.00;97624.23;270742;1272;22539;-86
2023/10/28 07:32:09;;;;;;;3.80;1.90;;;;;;;12.46;100.00;97628.48;271068;1265;22211;-84
2023/10/28 07:38:42;;;;;;;5.50;1.60;;;;;;;12.65;100.00;97644.79;271014;1271;22541;-84
2023/10/28 07:44:43;;;;;;;3.30;1.50;;;;;;;12.92;100.00;97659.24;271396;1272;22561;-86
2023/10/28 07:50:45;;;;;;;4.50;1.30;;;;;;;13.31;100.00;97663.04;271318;1272;22350;-85
2023/10/28 07:56:47;;;;;;;3.20;1.20;;;;;;;13.79;100.00;97674.95;271623;1272;23707;-86
2023/10/28 08:03:14;;;;;;;4.80;1.10;;;;;;;14.11;100.00;97680.16;271938;1272;23052;-87
2023/10/28 08:09:40;;;;;;;2.30;1.10;;;;;;;14.16;100.00;97689.41;270616;1272;22621;-85
2023/10/28 08:15:41;;;;;;;2.10;1.20;;;;;;;13.75;100.00;97693.89;270665;1272;22220;-85
2023/10/28 08:21:43;;;;;;;1.90;1.20;;;;;;;13.51;100.00;97698.65;271345;1272;25415;-85
2023/10/28 08:28:06;;;;;;;2.80;1.10;;;;;;;13.46;100.00;97707.26;271404;1269;22325;-85
2023/10/28 08:34:15;;;;;;;6.00;2.00;;;;;;;13.49;100.00;97710.17;271428;1272;23001;-85
2023/10/28 08:40:17;;;;;;;3.70;1.80;;;;;;;13.78;100.00;97714.80;272294;1272;22413;-85
2023/10/28 08:46:39;;;;;;;2.40;1.00;;;;;;;14.34;100.00;97720.04;272744;1272;22526;-85
2023/10/28 08:53:03;;;;;;;2.50;1.10;;;;;;;15.37;100.00;97727.11;272125;1272;22378;-85
2023/10/28 08:59:25;;;;;;;2.10;1.10;;;;;;;15.92;100.00;97736.02;270856;1272;22413;-85
2023/10/28 09:05:34;;;;;;;2.60;1.00;;;;;;;15.78;100.00;97748.50;272902;1272;22562;-83
2023/10/28 09:11:57;;;;;;;2.20;1.00;;;;;;;15.35;100.00;97752.15;272441;1272;22531;-86
2023/10/28 09:18:39;;;;;;;5.20;1.50;;;;;;;15.18;100.00;97758.92;271962;1265;23833;-85
2023/10/28 09:25:40;;;;;;;8.30;2.70;;;;;;;15.08;100.00;97763.30;272530;1272;22622;-84
2023/10/28 09:32:22;;;;;;;6.90;1.80;;;;;;;14.95;100.00;97767.42;272738;1272;22428;-86
2023/10/28 09:38:28;;;;;;;4.00;1.10;;;;;;;15.50;100.00;97763.35;272663;1272;22455;-85
2023/10/28 09:45:11;;;;;;;2.80;1.20;;;;;;;15.94;100.00;97768.23;273238;1272;22211;-84
2023/10/28 09:52:17;;;;;;;5.40;0.90;;;;;;;15.85;100.00;97770.62;272181;1277;22241;-85
2023/10/28 09:59:13;;;;;;;2.00;0.70;;;;;;;15.73;100.00;97770.25;271469;1280;22549;-85
2023/10/28 10:05:17;;;;;;;1.70;0.70;;;;;;;15.76;100.00;97772.55;269746;1280;22385;-86
2023/10/28 10:11:26;;;;;;;3.00;0.80;;;;;;;16.38;100.00;97774.75;268796;1280;22307;-85
2023/10/28 10:17:37;;;;;;;1.70;0.80;;;;;;;17.23;100.00;97773.84;268689;1280;23944;-86
2023/10/28 10:24:22;;;;;;;3.50;1.30;;;;;;;17.50;100.00;97775.78;270070;1275;22184;-85
2023/10/28 10:30:45;;;;;;;2.10;0.80;;;;;;;17.64;100.00;97775.44;271607;1267;22409;-85
2023/10/28 10:37:09;;;;;;;2.80;1.00;;;;;;;17.33;100.00;97777.77;272829;1272;22186;-85
2023/10/28 10:43:11;;;;;;;3.20;1.00;;;;;;;16.70;99.99;97782.13;271563;1272;23275;-84
2023/10/28 10:49:49;;;;;;;4.40;0.90;;;;;;;16.40;100.00;97781.58;272509;1272;22342;-85
2023/10/28 10:55:53;;;;;;;2.40;0.90;;;;;;;16.26;100.00;97773.58;271605;1272;22410;-86
2023/10/28 11:02:06;;;;;;;2.70;0.80;;;;;;;16.40;99.85;97775.02;272567;1272;22227;-85
2023/10/28 11:08:11;;;;;;;2.00;0.80;;;;;;;16.42;98.69;97785.83;272704;1272;22411;-87
2023/10/28 11:14:14;;;;;;;4.90;0.80;;;;;;;16.30;98.09;97791.02;273026;1272;22182;-85
2023/10/28 11:20:19;;;;;;;2.00;0.60;;;;;;;16.17;97.58;97793.64;272380;1272;23110;-85
2023/10/28 11:26:27;;;;;;;2.60;0.90;;;;;;;15.99;96.55;97794.18;272571;1266;22419;-85
2023/10/28 11:32:53;;;;;;;3.80;1.10;;;;;;;15.82;96.28;97795.94;273279;1272;23627;-85
2023/10/28 11:39:35;;;;;;;2.90;1.20;;;;;;;15.55;95.54;97801.57;273172;1273;22224;-85
2023/10/28 11:45:37;;;;;;;2.70;1.00;;;;;;;15.31;95.35;97802.36;271563;1272;22400;-86
2023/10/28 11:52:19;;;;;;;9.10;1.10;;;;;;;15.13;95.20;97801.73;272009;1270;22329;-86
2023/10/28 11:58:46;;;;;;;3.90;1.00;;;;;;;15.12;95.16;97809.09;271571;1272;22168;-83
2023/10/28 12:05:10;;;;;;;1.80;1.10;;;;;;;15.19;94.87;97809.45;272572;1272;22543;-83
2023/10/28 12:11:12;;;;;;;3.40;1.20;;;;;;;15.12;94.15;97812.80;270741;1271;23209;-85
2023/10/28 12:17:17;;;;;;;3.30;1.50;;;;;;;15.01;94.43;97819.06;272684;1272;22396;-85
2023/10/28 12:23:19;;;;;;;3.50;1.90;;;;;;;14.80;94.18;97826.02;271448;1272;22551;-85
2023/10/28 12:29:21;;;;;;;7.10;2.70;;;;;;;14.56;93.95;97830.46;272296;1272;22249;-84
2023/10/28 12:35:23;;;;;;;3.40;1.30;;;;;;;14.31;94.31;97832.91;271889;1272;22450;-84
2023/10/28 12:41:25;;;;;;;3.20;1.50;;;;;;;14.17;94.39;97840.51;272478;1272;22211;-84
2023/10/28 12:47:28;;;;;;;3.90;1.40;;;;;;;14.08;94.98;97846.52;271947;1272;22377;-85
2023/10/28 12:53:30;;;;;;;4.30;1.90;;;;;;;14.07;95.06;97851.96;272926;1272;22228;-84
2023/10/28 12:59:34;;;;;;;7.50;2.20;;;;;;;14.11;94.98;97855.03;272557;1272;22541;-85
2023/10/28 13:05:35;;;;;;;3.90;2.10;;;;;;;14.13;95.22;97857.50;272174;1272;22376;-84
2023/10/28 13:11:39;;;;;;;2.50;1.60;;;;;;;14.03;94.74;97854.56;271941;1272;25265;-83
2023/10/28 13:17:42;;;;;;;7.10;2.40;;;;;;;13.92;94.55;97854.32;270938;1272;22381;-84
2023/10/28 13:23:44;;;;;;;7.40;2.80;;;;;;;13.77;94.31;97862.58;271374;1272;22547;-82
2023/10/28 13:29:47;;;;;;;5.10;3.00;;;;;;;13.61;94.61;97866.96;270471;1272;23052;-84
2023/10/28 13:35:48;;;;;;;3.50;2.20;;;;;;;13.52;95.30;97862.41;272097;1272;23317;-85
2023/10/28 13:41:51;;;;;;;7.70;3.20;;;;;;;13.47;96.12;97875.47;272291;1272;22553;-84
2023/10/28 13:47:54;;;;;;;4.70;2.70;;;;;;;13.38;96.59;97879.73;272352;1272;22349;-85
2023/10/28 13:53:55;;;;;;;6.30;3.20;;;;;;;13.31;96.96;97885.81;272730;1272;22558;-85
2023/10/28 13:59:57;;;;;;;6.00;2.80;;;;;;;13.24;97.48;97891.59;272480;1272;22172;-84
2023/10/28 14:06:03;;;;;;;10.00;5.00;;;;;;;13.17;98.44;97894.62;271997;1272;22684;-85
2023/10/28 14:12:06;;;;;;;9.00;5.00;;;;;;;13.16;98.74;97896.90;272522;1272;22306;-84
2023/10/28 14:18:09;;;;;;;13.30;6.10;;;;;;;13.15;98.91;97905.64;272545;1272;22467;-85
2023/10/28 14:24:18;;;;;;;11.10;5.70;;;;;;;13.08;99.06;97910.61;272606;1272;22412;-83
2023/10/28 14:30:20;;;;;;;6.00;3.10;;;;;;;13.08;99.46;97911.24;271181;1269;22289;-84
2023/10/28 14:36:21;;;;;;;6.50;2.80;;;;;;;13.06;98.99;97915.67;272546;1272;22391;-85
2023/10/28 14:42:24;;;;;;;6.80;2.80;;;;;;;13.04;98.85;97921.04;272113;1272;24270;-84
2023/10/28 14:48:26;;;;;;;4.70;2.50;;;;;;;12.98;99.14;97922.20;272437;1269;22233;-85
2023/10/28 14:54:28;;;;;;;5.70;3.00;;;;;;;12.92;99.00;97926.45;272476;1272;22507;-85
2023/10/28 15:00:30;;;;;;;6.50;3.70;;;;;;;12.86;98.80;97929.69;271837;1272;22425;-83
2023/10/28 15:06:31;;;;;;;7.90;3.30;;;;;;;12.80;99.65;97930.09;271932;1272;23430;-84
2023/10/28 15:12:33;;;;;;;5.50;2.40;;;;;;;12.72;99.48;97932.79;271898;1272;22382;-85
2023/10/28 15:18:35;;;;;;;6.80;2.30;;;;;;;12.61;98.79;97930.98;272371;1272;23374;-86
2023/10/28 15:33:03;;;;;;;7.00;3.20;;;;;;;12.58;98.33;97936.45;272241;1273;22398;-85
2023/10/28 15:39:58;;;;;;;7.50;3.80;;;;;;;12.51;98.89;97938.65;271341;1289;23893;-86
2023/10/28 15:47:03;;;;;;;7.50;4.50;;;;;;;12.41;99.12;97943.26;269745;1289;22305;-85
2023/10/28 16:02:20;;;;;;;7.70;3.80;;;;;;;12.32;99.27;97945.33;269329;1293;23034;-85
2023/10/28 16:08:59;;;;;;;6.80;4.20;;;;;;;12.31;99.19;97948.00;266651;1289;22588;-84
2023/10/28 16:16:32;;;;;;;6.00;3.80;;;;;;;12.27;99.75;97954.09;268184;1287;22368;-86
2023/10/28 16:24:03;;;;;;;8.70;4.10;;;;;;;12.21;100.00;97972.29;271212;1282;23150;-85
2023/10/28 16:31:23;;;;;;;6.50;3.70;;;;;;;12.04;100.00;97981.48;270391;1287;22255;-84
2023/10/28 16:38:20;;;;;;;7.30;4.10;;;;;;;11.82;100.00;97986.81;269306;1293;22255;-84
2023/10/28 16:45:20;;;;;;;8.10;3.80;;;;;;;11.60;100.00;97991.61;269984;1289;22015;-85
2023/10/28 16:53:02;;;;;;;10.40;4.20;;;;;;;11.47;100.00;97996.73;269904;1290;22568;-84
2023/10/28 17:29:57;;;;;;;7.00;3.40;;;;;;;11.57;100.00;98038.70;270142;1290;22318;-84
2023/10/28 17:45:03;;;;;;;10.20;3.90;;;;;;;11.59;100.00;98044.80;271494;1288;22255;-84
2023/10/28 17:52:29;;;;;;;8.50;4.30;;;;;;;11.64;100.00;98051.35;272595;1280;22186;-84
2023/10/28 17:59:18;;;;;;;9.80;4.20;;;;;;;11.64;100.00;98054.65;265267;1271;10140805;-85
2023/10/28 18:07:19;;;;;;;9.10;4.30;;;;;;;11.67;100.00;98060.66;271808;1276;22343;-85
2023/10/28 18:37:04;;;;;;;12.10;4.80;;;;;;;11.79;100.00;98077.55;272168;1278;22203;-85
2023/10/28 18:59:59;;;;;;;6.30;2.90;;;;;;;11.73;100.00;98096.09;271432;1280;22274;-84
2023/10/28 19:07:13;;;;;;;6.30;3.40;;;;;;;11.69;100.00;98109.36;270906;1290;22299;-84
2023/10/28 19:15:18;;;;;;;6.70;2.70;;;;;;;11.65;100.00;98119.95;271292;1283;22257;-84
2023/10/28 19:22:34;;;;;;;6.30;3.60;;;;;;;11.57;100.00;98129.70;267778;1297;22502;-84
2023/10/28 19:37:19;;;;;;;6.20;3.00;;;;;;;11.49;100.00;98138.14;271770;1286;22107;-84
2023/10/28 19:52:05;;;;;;;7.90;3.10;;;;;;;11.38;100.00;98149.46;269659;1297;23663;-84
2023/10/28 20:00:01;;;;;;;6.80;2.70;;;;;;;11.36;100.00;98155.35;269004;1292;22266;-85
2023/10/28 20:08:00;;;;;;;7.50;3.00;;;;;;;11.30;100.00;98163.91;269012;1297;22226;-84
2023/10/28 20:15:19;;;;;;;6.50;3.10;;;;;;;11.29;100.00;98172.92;270627;1285;22276;-83
2023/10/28 20:23:07;;;;;;;7.80;2.90;;;;;;;11.31;100.00;98180.59;271971;1285;23631;-85
2023/10/28 20:29:51;;;;;;;8.30;3.20;;;;;;;11.30;100.00;98182.15;272233;1277;22557;-85
2023/10/28 20:45:23;;;;;;;11.20;3.80;;;;;;;11.29;100.00;98193.50;270419;1286;22636;-85
2023/10/28 20:53:19;;;;;;;8.50;3.30;;;;;;;11.29;100.00;98202.43;268173;1296;22273;-85
2023/10/28 21:01:10;;;;;;;5.50;2.70;;;;;;;11.30;100.00;98210.27;267353;1294;22655;-85
2023/10/28 21:08:22;;;;;;;6.90;3.00;;;;;;;11.36;100.00;98214.94;268071;1289;25690;-86
2023/10/28 21:15:19;;;;;;;4.60;2.40;;;;;;;11.40;100.00;98217.50;269594;1277;22584;-87
2023/10/28 21:23:09;;;;;;;5.60;1.80;;;;;;;11.46;100.00;98217.16;271463;1280;22600;-84
2023/10/28 21:46:08;;;;;;;3.80;2.20;;;;;;;11.77;100.00;98210.36;271641;1262;22537;-84
2023/10/28 21:53:07;;;;;;;4.00;1.80;;;;;;;11.86;100.00;98212.10;271812;1286;22216;-85
2023/10/28 22:29:50;;;;;;;5.40;2.20;;;;;;;11.94;100.00;98224.05;269989;1281;22257;-85
2023/10/28 22:53:38;;;;;;;4.10;1.80;;;;;;;11.94;100.00;98228.13;268871;1283;22317;-84
2023/10/28 23:07:51;;;;;;;3.00;1.80;;;;;;;11.80;99.97;98231.96;271330;1283;22270;-84
2023/10/28 23:14:17;;;;;;;4.20;1.50;;;;;;;11.76;99.99;98243.59;271382;1278;22997;-85
